Time;durP1;ratioP1;P1;durP2;ratioP2;P2;SDS_P1;SDS_P2;PMS_P1;PMS_P2;Temp;Humidity;BMP_temperature;BMP_pressure;BME280_temperature;BME280_humidity;BME280_pressure;Samples;Min_cycle;Max_cycle;Signal;HPM_P1;HPM_P2
2023/12/08 00:02:07;;;;;;;10.60;4.10;;;5.10;81.10;;;;;;5054147;28;20032;-67
2023/12/08 00:04:33;;;;;;;5.60;3.78;;;5.10;81.00;;;;;;5053138;28;20028;-60
2023/12/08 00:06:59;;;;;;;6.75;4.35;;;5.10;81.00;;;;;;5050298;28;20502;-60
2023/12/08 00:09:25;;;;;;;6.97;3.35;;;5.10;80.90;;;;;;5051637;28;20044;-67
2023/12/08 00:11:50;;;;;;;6.13;4.00;;;5.10;81.10;;;;;;5051180;28;20049;-67
2023/12/08 00:14:16;;;;;;;7.70;4.03;;;5.10;81.10;;;;;;5045974;28;20061;-67
2023/12/08 00:16:42;;;;;;;8.50;4.07;;;5.20;81.10;;;;;;5055004;28;20107;-67
2023/12/08 00:19:10;;;;;;;4.10;2.90;;;5.20;81.00;;;;;;5050232;28;20037;-60
2023/12/08 00:21:36;;;;;;;5.90;3.58;;;5.20;81.00;;;;;;5045396;28;20428;-60
2023/12/08 00:24:01;;;;;;;7.93;3.53;;;5.20;81.00;;;;;;5042566;28;20027;-60
2023/12/08 00:26:28;;;;;;;6.03;3.47;;;5.20;81.10;;;;;;5043733;28;20045;-59
2023/12/08 00:28:54;;;;;;;6.78;4.30;;;5.20;81.20;;;;;;5055125;28;20487;-67
2023/12/08 00:31:20;;;;;;;8.23;4.18;;;5.20;81.20;;;;;;5054705;28;20029;-66
2023/12/08 00:33:45;;;;;;;4.85;3.33;;;5.20;81.20;;;;;;5058711;28;20029;-66
2023/12/08 00:36:18;;;;;;;6.38;2.97;;;5.10;81.20;;;;;;5053574;28;20035;-66
2023/12/08 00:38:46;;;;;;;3.33;2.72;;;5.20;81.30;;;;;;5048745;28;20116;-66
2023/12/08 00:41:12;;;;;;;5.13;3.67;;;5.20;81.30;;;;;;5058651;28;20427;-67
2023/12/08 00:43:38;;;;;;;6.18;3.78;;;5.10;81.40;;;;;;5040116;28;20056;-67
2023/12/08 00:46:04;;;;;;;8.73;3.92;;;5.10;81.40;;;;;;5050473;28;20120;-67
2023/12/08 00:48:30;;;;;;;7.82;4.18;;;5.20;81.50;;;;;;5061115;28;20376;-60
2023/12/08 00:50:56;;;;;;;6.05;3.55;;;5.10;81.50;;;;;;5054082;28;20598;-60
2023/12/08 00:53:22;;;;;;;6.18;3.78;;;5.10;81.60;;;;;;5049216;28;20036;-59
2023/12/08 00:55:47;;;;;;;3.72;2.90;;;5.10;81.60;;;;;;5048635;28;20037;-60
2023/12/08 00:58:15;;;;;;;5.65;3.88;;;5.10;81.60;;;;;;5042562;28;20044;-60
2023/12/08 01:00:41;;;;;;;7.43;4.18;;;5.10;81.60;;;;;;5052622;28;20079;-60
2023/12/08 01:03:06;;;;;;;4.72;3.70;;;5.10;81.60;;;;;;5055530;28;20442;-60
2023/12/08 01:05:32;;;;;;;6.32;5.18;;;5.10;81.60;;;;;;5056536;28;20033;-60
2023/12/08 01:07:58;;;;;;;5.65;3.08;;;5.00;81.60;;;;;;5061137;28;20040;-60
2023/12/08 01:10:23;;;;;;;5.25;3.13;;;5.00;81.70;;;;;;5060608;28;20473;-60
2023/12/08 01:12:49;;;;;;;6.72;3.20;;;5.00;81.70;;;;;;5049185;28;20029;-60
2023/12/08 01:15:15;;;;;;;5.47;3.15;;;5.10;81.80;;;;;;5046333;28;20113;-60
2023/12/08 01:17:40;;;;;;;6.63;3.50;;;5.10;81.80;;;;;;5063336;28;20427;-60
2023/12/08 01:20:07;;;;;;;6.15;2.90;;;5.10;81.70;;;;;;5061531;28;20029;-60
2023/12/08 01:22:33;;;;;;;8.18;4.18;;;5.00;81.70;;;;;;5063930;28;20067;-60
2023/12/08 01:24:59;;;;;;;5.30;3.67;;;5.00;81.80;;;;;;5059968;28;20029;-60
2023/12/08 01:27:25;;;;;;;5.20;3.92;;;5.00;81.90;;;;;;5049760;28;20389;-60
2023/12/08 01:29:51;;;;;;;7.40;4.15;;;5.00;81.90;;;;;;5055079;28;20033;-60
2023/12/08 01:32:17;;;;;;;5.78;3.50;;;5.00;81.90;;;;;;5056905;28;20490;-60
2023/12/08 01:34:43;;;;;;;8.23;4.45;;;5.00;81.80;;;;;;5052760;28;20063;-60
2023/12/08 01:37:09;;;;;;;4.70;3.35;;;5.10;81.80;;;;;;5053376;28;20029;-60
2023/12/08 01:39:34;;;;;;;4.93;3.45;;;5.10;81.70;;;;;;5047441;28;20040;-60
2023/12/08 01:42:00;;;;;;;3.83;2.72;;;5.00;81.60;;;;;;5048548;28;20040;-60
2023/12/08 01:44:26;;;;;;;4.45;2.92;;;5.10;81.70;;;;;;5053073;28;20037;-60
2023/12/08 01:46:52;;;;;;;6.90;3.75;;;5.10;81.70;;;;;;5051940;28;20057;-60
2023/12/08 01:49:18;;;;;;;5.00;2.88;;;5.10;81.60;;;;;;5048527;28;20040;-67
2023/12/08 01:51:44;;;;;;;5.65;2.95;;;5.10;81.60;;;;;;5052758;28;20090;-67
2023/12/08 01:54:11;;;;;;;5.00;4.18;;;5.10;81.70;;;;;;5054761;28;20089;-60
2023/12/08 01:56:37;;;;;;;4.65;2.88;;;5.00;81.60;;;;;;5048985;28;20021;-60
2023/12/08 01:59:03;;;;;;;7.72;3.95;;;5.00;81.60;;;;;;5056626;28;20040;-67
2023/12/08 02:01:29;;;;;;;7.03;3.70;;;5.10;81.60;;;;;;5051728;28;20035;-61
2023/12/08 02:03:55;;;;;;;3.70;2.85;;;5.00;81.50;;;;;;5052735;28;20450;-60
2023/12/08 02:06:21;;;;;;;6.53;3.35;;;5.00;81.50;;;;;;5048108;28;20033;-60
2023/12/08 02:08:47;;;;;;;4.22;2.80;;;5.10;82.20;;;;;;5057201;28;20548;-59
2023/12/08 02:11:13;;;;;;;11.15;4.38;;;5.10;81.60;;;;;;5055097;28;20104;-60
2023/12/08 02:13:41;;;;;;;6.30;3.17;;;5.10;81.60;;;;;;5062320;28;20028;-66
2023/12/08 02:16:11;;;;;;;5.00;3.10;;;5.10;82.20;;;;;;5054138;28;20034;-66
2023/12/08 02:18:38;;;;;;;4.18;2.70;;;5.10;81.60;;;;;;5055647;28;20109;-66
2023/12/08 02:21:08;;;;;;;5.28;3.22;;;5.10;81.60;;;;;;5050860;28;20021;-60
2023/12/08 02:23:37;;;;;;;3.10;2.53;;;5.10;81.60;;;;;;5049846;28;20427;-60
2023/12/08 02:26:05;;;;;;;4.50;3.13;;;5.20;81.60;;;;;;5056648;28;20037;-60
2023/12/08 02:28:31;;;;;;;6.75;3.88;;;5.20;81.50;;;;;;5045166;28;20045;-66
2023/12/08 02:30:59;;;;;;;5.95;3.85;;;5.20;81.40;;;;;;5047194;28;20404;-67
2023/12/08 02:33:32;;;;;;;4.72;3.83;;;5.20;81.30;;;;;;5046001;28;20021;-69
2023/12/08 02:36:04;;;;;;;4.32;2.78;;;5.20;81.30;;;;;;5054765;28;20038;-67
2023/12/08 02:38:33;;;;;;;7.07;3.83;;;5.20;81.50;;;;;;5049036;28;20059;-59
2023/12/08 02:40:59;;;;;;;6.10;3.92;;;5.20;81.40;;;;;;5051082;28;20027;-60
2023/12/08 02:43:25;;;;;;;7.10;3.53;;;5.20;81.50;;;;;;5054084;28;20037;-59
2023/12/08 02:45:50;;;;;;;5.10;2.90;;;5.20;81.60;;;;;;5053459;28;20048;-60
2023/12/08 02:48:16;;;;;;;6.63;3.33;;;5.20;81.60;;;;;;5048136;28;20173;-59
2023/12/08 02:50:43;;;;;;;4.40;2.55;;;5.20;81.60;;;;;;5049045;28;20488;-59
2023/12/08 02:53:09;;;;;;;5.80;2.58;;;5.20;81.70;;;;;;5046710;28;20079;-61
2023/12/08 02:55:34;;;;;;;7.30;3.83;;;5.20;81.60;;;;;;5054925;28;20024;-67
2023/12/08 02:58:00;;;;;;;5.13;3.42;;;5.20;81.70;;;;;;5058107;28;20052;-67
2023/12/08 03:00:26;;;;;;;3.08;2.45;;;5.20;81.70;;;;;;5058352;28;20032;-67
2023/12/08 03:02:52;;;;;;;6.28;3.92;;;5.20;81.70;;;;;;5061102;28;20032;-60
2023/12/08 03:05:17;;;;;;;6.20;3.63;;;5.20;81.80;;;;;;5051687;28;20108;-59
2023/12/08 03:07:43;;;;;;;5.15;3.45;;;5.20;82.00;;;;;;5062360;28;20024;-60
2023/12/08 03:10:09;;;;;;;5.53;3.78;;;5.10;82.00;;;;;;5055103;28;20063;-60
2023/12/08 03:12:35;;;;;;;5.53;3.42;;;5.10;81.90;;;;;;5059682;28;20389;-60
2023/12/08 03:15:01;;;;;;;4.97;3.83;;;5.10;82.00;;;;;;5049623;28;20502;-59
2023/12/08 03:17:27;;;;;;;3.97;2.70;;;5.10;82.00;;;;;;5052213;28;20337;-60
2023/12/08 03:19:52;;;;;;;4.75;3.30;;;5.10;82.10;;;;;;5051685;28;20104;-60
2023/12/08 03:22:18;;;;;;;5.88;3.47;;;5.00;82.00;;;;;;5057400;28;20039;-67
2023/12/08 03:24:44;;;;;;;4.68;3.25;;;5.10;82.20;;;;;;5060229;28;20449;-67
2023/12/08 03:27:09;;;;;;;5.68;3.47;;;5.10;82.20;;;;;;5058768;28;20128;-67
2023/12/08 03:29:40;;;;;;;5.68;3.45;;;5.10;82.20;;;;;;5059818;28;20041;-67
2023/12/08 03:32:06;;;;;;;7.15;3.72;;;5.00;82.20;;;;;;5059386;28;20492;-60
2023/12/08 03:34:32;;;;;;;3.78;3.08;;;5.00;82.30;;;;;;5056416;28;20080;-60
2023/12/08 03:36:57;;;;;;;8.45;4.80;;;5.00;82.30;;;;;;5057352;28;20518;-67
2023/12/08 03:39:23;;;;;;;4.63;3.42;;;5.00;82.40;;;;;;5050249;28;20116;-67
2023/12/08 03:41:49;;;;;;;4.80;2.70;;;5.00;82.90;;;;;;5057655;28;20112;-60
2023/12/08 03:44:14;;;;;;;6.05;3.47;;;5.00;82.30;;;;;;5056699;28;20029;-60
2023/12/08 03:46:44;;;;;;;4.90;3.60;;;5.00;82.90;;;;;;5037444;28;20067;-60
2023/12/08 03:49:10;;;;;;;5.93;4.22;;;5.00;82.40;;;;;;5047644;28;20119;-60
2023/12/08 03:51:35;;;;;;;6.90;4.03;;;5.00;82.50;;;;;;5054904;28;20108;-60
2023/12/08 03:54:01;;;;;;;5.65;3.58;;;5.10;82.60;;;;;;5054774;28;20037;-67
2023/12/08 03:56:27;;;;;;;5.68;3.50;;;5.00;82.50;;;;;;5048053;28;20029;-60
2023/12/08 03:58:53;;;;;;;7.53;4.13;;;5.10;82.60;;;;;;5058760;28;20055;-60
2023/12/08 04:01:19;;;;;;;8.10;3.97;;;5.10;82.60;;;;;;5052480;28;20573;-66
2023/12/08 04:03:45;;;;;;;5.70;3.28;;;5.00;82.60;;;;;;5056473;28;20048;-67
2023/12/08 04:06:11;;;;;;;7.78;4.05;;;5.10;82.70;;;;;;5051625;28;20082;-60
2023/12/08 04:08:36;;;;;;;7.50;3.00;;;5.10;82.80;;;;;;5057903;28;20843;-60
2023/12/08 04:11:03;;;;;;;8.75;3.60;;;5.10;82.90;;;;;;5050211;28;20086;-66
2023/12/08 04:13:29;;;;;;;8.02;3.83;;;5.10;82.90;;;;;;5053400;28;20399;-67
2023/12/08 04:15:55;;;;;;;4.85;3.30;;;5.10;82.90;;;;;;5051968;28;20029;-67
2023/12/08 04:18:20;;;;;;;5.03;3.45;;;5.10;82.90;;;;;;5054741;28;20470;-67
2023/12/08 04:20:46;;;;;;;4.75;3.50;;;5.10;82.90;;;;;;5053304;28;20393;-67
2023/12/08 04:23:12;;;;;;;7.20;4.50;;;5.10;83.00;;;;;;5057364;28;20100;-67
2023/12/08 04:25:38;;;;;;;7.13;3.65;;;5.10;83.10;;;;;;5052901;28;20045;-60
2023/12/08 04:28:04;;;;;;;6.68;3.47;;;5.10;83.20;;;;;;5054441;28;20207;-60
2023/12/08 04:30:30;;;;;;;6.75;3.03;;;5.10;83.20;;;;;;5047106;28;20026;-60
2023/12/08 04:32:56;;;;;;;6.53;3.75;;;5.10;83.30;;;;;;5056692;28;20025;-60
2023/12/08 04:35:22;;;;;;;10.20;4.65;;;5.10;83.30;;;;;;5046240;28;20484;-60
2023/12/08 04:37:50;;;;;;;7.25;4.07;;;5.10;83.30;;;;;;5049993;28;20063;-60
2023/12/08 04:40:16;;;;;;;6.32;3.08;;;5.10;83.30;;;;;;5045342;28;20033;-60
2023/12/08 04:42:42;;;;;;;4.60;3.65;;;5.20;83.30;;;;;;5043982;28;20027;-59
2023/12/08 04:45:09;;;;;;;6.13;3.95;;;5.20;83.20;;;;;;5053527;28;20325;-60
2023/12/08 04:47:36;;;;;;;10.38;3.25;;;5.20;83.30;;;;;;5059267;28;20031;-67
2023/12/08 04:50:02;;;;;;;7.20;4.30;;;5.20;83.30;;;;;;5053531;28;20029;-67
2023/12/08 04:52:28;;;;;;;5.20;3.20;;;5.20;83.90;;;;;;5059089;28;20103;-67
2023/12/08 04:54:54;;;;;;;14.45;5.00;;;5.20;83.40;;;;;;5061704;28;20029;-61
2023/12/08 04:57:20;;;;;;;8.70;4.57;;;5.20;83.40;;;;;;5054148;28;20070;-61
2023/12/08 04:59:45;;;;;;;5.60;3.20;;;5.20;83.40;;;;;;5054291;28;20033;-61
2023/12/08 05:02:11;;;;;;;6.75;3.40;;;5.20;83.50;;;;;;5050071;28;20081;-61
2023/12/08 05:04:37;;;;;;;5.45;3.38;;;5.10;83.40;;;;;;5057371;28;20093;-68
2023/12/08 05:07:03;;;;;;;8.57;5.35;;;5.20;83.60;;;;;;5055056;28;20024;-68
2023/12/08 05:09:29;;;;;;;6.35;4.00;;;5.20;83.60;;;;;;5039842;28;20065;-68
2023/12/08 05:11:55;;;;;;;7.30;4.32;;;5.20;83.60;;;;;;5050234;28;20020;-69
2023/12/08 05:14:20;;;;;;;7.50;5.20;;;5.20;83.70;;;;;;5048178;28;20029;-69
2023/12/08 05:16:46;;;;;;;7.95;4.68;;;5.10;83.80;;;;;;5041621;28;20040;-68
2023/12/08 05:19:12;;;;;;;8.15;4.50;;;5.10;83.90;;;;;;5047785;28;20033;-68
2023/12/08 05:21:38;;;;;;;7.70;4.57;;;5.20;83.90;;;;;;5055365;28;20036;-68
2023/12/08 05:24:04;;;;;;;6.97;4.18;;;5.20;83.90;;;;;;5056446;28;20025;-61
2023/12/08 05:26:30;;;;;;;7.57;4.50;;;5.20;83.90;;;;;;5059352;28;20094;-61
2023/12/08 05:28:56;;;;;;;10.18;4.90;;;5.20;83.80;;;;;;5056066;28;20041;-61
2023/12/08 05:31:22;;;;;;;7.22;4.32;;;5.20;83.80;;;;;;5055894;28;20036;-69
2023/12/08 05:33:48;;;;;;;8.07;4.53;;;5.20;83.80;;;;;;5057760;28;20029;-61
2023/12/08 05:36:14;;;;;;;14.27;5.07;;;5.20;83.90;;;;;;5053393;28;20096;-61
2023/12/08 05:38:40;;;;;;;8.00;5.13;;;5.20;83.90;;;;;;5053291;28;20124;-61
2023/12/08 05:41:07;;;;;;;7.80;4.75;;;5.20;83.90;;;;;;5058371;28;20399;-61
2023/12/08 05:43:33;;;;;;;5.18;3.75;;;5.20;84.00;;;;;;5054522;28;20075;-61
2023/12/08 05:45:59;;;;;;;9.00;4.40;;;5.20;84.00;;;;;;5050098;28;20438;-61
2023/12/08 05:48:24;;;;;;;9.40;5.05;;;5.20;84.00;;;;;;5050306;28;20391;-61
2023/12/08 05:50:50;;;;;;;10.70;5.68;;;5.20;84.00;;;;;;5050091;28;20033;-61
2023/12/08 05:53:16;;;;;;;7.55;5.43;;;5.20;84.00;;;;;;5055633;28;20053;-61
2023/12/08 05:55:41;;;;;;;7.38;4.18;;;5.20;84.00;;;;;;5055985;28;20024;-61
2023/12/08 05:58:07;;;;;;;7.65;4.25;;;5.20;84.10;;;;;;5057561;28;20036;-61
2023/12/08 06:00:33;;;;;;;10.90;5.18;;;5.20;84.10;;;;;;5061131;28;20056;-61
2023/12/08 06:02:59;;;;;;;8.02;5.28;;;5.20;84.10;;;;;;5047843;28;20032;-61
2023/12/08 06:05:25;;;;;;;9.20;5.50;;;5.20;84.20;;;;;;5045308;28;20052;-61
2023/12/08 06:07:50;;;;;;;10.27;5.55;;;5.20;84.10;;;;;;5053744;28;20029;-61
2023/12/08 06:10:16;;;;;;;7.68;4.38;;;5.30;84.20;;;;;;5053767;28;20087;-61
2023/12/08 06:12:42;;;;;;;5.57;4.18;;;5.30;84.20;;;;;;5049457;28;20031;-61
2023/12/08 06:15:10;;;;;;;9.00;4.88;;;5.30;84.20;;;;;;5056825;28;20029;-68
2023/12/08 06:17:38;;;;;;;8.80;4.65;;;5.30;84.10;;;;;;5054508;28;20033;-61
2023/12/08 06:20:05;;;;;;;9.10;5.15;;;5.30;84.20;;;;;;5056814;28;20031;-61
2023/12/08 06:22:31;;;;;;;11.23;5.38;;;5.30;84.30;;;;;;5056357;28;20063;-61
2023/12/08 06:24:57;;;;;;;13.05;6.20;;;5.20;84.30;;;;;;5052774;28;20033;-61
2023/12/08 06:27:23;;;;;;;8.77;5.25;;;5.30;84.40;;;;;;5054790;28;20107;-61
2023/12/08 06:29:50;;;;;;;7.00;4.20;;;5.30;84.50;;;;;;5057452;28;20051;-61
2023/12/08 06:32:18;;;;;;;10.23;4.90;;;5.30;84.40;;;;;;5054121;28;20034;-61
2023/12/08 06:34:46;;;;;;;9.88;5.78;;;5.30;84.40;;;;;;5055411;28;20036;-61
2023/12/08 06:37:12;;;;;;;10.80;5.97;;;5.30;84.40;;;;;;5050001;28;20021;-61
2023/12/08 06:39:39;;;;;;;10.98;5.85;;;5.30;84.40;;;;;;5052826;28;20488;-61
2023/12/08 06:42:05;;;;;;;13.50;5.60;;;5.30;84.50;;;;;;5056703;28;20029;-61
2023/12/08 06:44:31;;;;;;;9.25;5.32;;;5.30;84.40;;;;;;5035332;28;20033;-61
2023/12/08 06:46:56;;;;;;;7.60;4.85;;;5.30;85.00;;;;;;5050737;28;20033;-61
2023/12/08 06:49:22;;;;;;;8.60;5.55;;;5.30;84.60;;;;;;5061517;28;20123;-61
2023/12/08 06:51:48;;;;;;;9.98;5.78;;;5.30;84.60;;;;;;5057720;28;20033;-61
2023/12/08 06:54:13;;;;;;;6.25;4.15;;;5.30;84.60;;;;;;5057517;28;20428;-61
2023/12/08 06:56:42;;;;;;;8.50;4.47;;;5.30;84.60;;;;;;5052655;28;20029;-61
2023/12/08 06:59:08;;;;;;;11.35;5.80;;;5.30;84.60;;;;;;5057253;28;20340;-61
2023/12/08 07:01:37;;;;;;;8.55;5.72;;;5.30;84.60;;;;;;5057658;28;20487;-61
2023/12/08 07:04:03;;;;;;;8.98;5.20;;;5.40;84.70;;;;;;5057821;28;20103;-61
2023/12/08 07:06:30;;;;;;;9.75;5.97;;;5.40;84.60;;;;;;5049571;28;20119;-68
2023/12/08 07:08:56;;;;;;;9.90;6.40;;;5.40;84.60;;;;;;5056772;28;20029;-66
2023/12/08 07:11:22;;;;;;;7.35;5.35;;;5.40;84.50;;;;;;5061462;28;20124;-66
2023/12/08 07:13:48;;;;;;;8.77;4.95;;;5.40;84.60;;;;;;5053862;28;20044;-67
2023/12/08 07:16:14;;;;;;;6.57;4.10;;;5.40;84.50;;;;;;5058220;28;20035;-64
2023/12/08 07:18:40;;;;;;;7.53;5.60;;;5.50;84.60;;;;;;5044330;28;20044;-66
2023/12/08 07:21:07;;;;;;;9.40;5.45;;;5.50;84.50;;;;;;5061782;28;20028;-67
2023/12/08 07:23:33;;;;;;;9.55;5.03;;;5.50;84.50;;;;;;5055374;28;20029;-67
2023/12/08 07:25:59;;;;;;;12.07;5.18;;;5.50;84.50;;;;;;5057159;28;20037;-66
2023/12/08 07:28:25;;;;;;;10.00;6.57;;;5.50;84.60;;;;;;5059046;28;20033;-67
2023/12/08 07:30:50;;;;;;;9.10;6.03;;;5.50;84.60;;;;;;5053194;28;20028;-67
2023/12/08 07:33:16;;;;;;;9.70;6.13;;;5.50;84.70;;;;;;5057032;28;20040;-67
2023/12/08 07:35:42;;;;;;;10.70;5.47;;;5.50;84.70;;;;;;5053101;28;20083;-59
2023/12/08 07:38:07;;;;;;;10.23;4.95;;;5.50;84.80;;;;;;5057935;28;20047;-59
2023/12/08 07:40:33;;;;;;;10.80;6.38;;;5.50;84.80;;;;;;5009709;22;20410;-59
2023/12/08 07:42:59;;;;;;;8.02;5.53;;;5.50;84.80;;;;;;5010916;28;20041;-59
2023/12/08 07:45:25;;;;;;;6.80;4.57;;;5.50;84.80;;;;;;5014014;28;20034;-59
2023/12/08 07:47:51;;;;;;;10.80;6.15;;;5.50;84.90;;;;;;5034056;28;20384;-59
2023/12/08 07:50:17;;;;;;;9.88;5.13;;;5.50;84.90;;;;;;5019309;28;20087;-59
2023/12/08 07:52:42;;;;;;;10.27;5.93;;;5.50;84.90;;;;;;5035874;28;20112;-59
2023/12/08 07:55:09;;;;;;;16.80;6.18;;;5.50;85.20;;;;;;5020805;28;20065;-59
2023/12/08 07:57:34;;;;;;;9.57;5.85;;;5.50;85.00;;;;;;5035306;28;20587;-59
2023/12/08 08:00:00;;;;;;;7.68;4.95;;;5.50;85.00;;;;;;5030275;28;20112;-66
2023/12/08 08:02:26;;;;;;;10.43;5.65;;;5.50;85.00;;;;;;5029896;28;20033;-60
2023/12/08 08:04:52;;;;;;;9.07;5.93;;;5.50;85.10;;;;;;5026540;28;20393;-60
2023/12/08 08:07:18;;;;;;;8.00;5.55;;;5.50;85.10;;;;;;5029654;28;20036;-66
2023/12/08 08:09:43;;;;;;;9.05;5.22;;;5.60;85.10;;;;;;5029917;28;20064;-67
2023/12/08 08:12:09;;;;;;;9.77;5.30;;;5.60;85.10;;;;;;5028063;28;20113;-66
2023/12/08 08:14:35;;;;;;;5.93;4.75;;;5.60;85.00;;;;;;5030121;28;20076;-67
2023/12/08 08:17:03;;;;;;;8.02;5.35;;;5.60;85.00;;;;;;5036198;28;20032;-67
2023/12/08 08:19:29;;;;;;;10.30;5.20;;;5.60;85.00;;;;;;5030818;28;20033;-67
2023/12/08 08:21:55;;;;;;;10.40;4.85;;;5.60;85.10;;;;;;5035553;28;20094;-66
2023/12/08 08:24:21;;;;;;;9.07;6.10;;;5.60;85.10;;;;;;5014147;28;20048;-67
2023/12/08 08:26:47;;;;;;;9.38;6.10;;;5.70;85.20;;;;;;5037344;28;20552;-66
2023/12/08 08:29:13;;;;;;;9.43;5.50;;;5.70;85.20;;;;;;5032438;28;20311;-67
2023/12/08 08:31:39;;;;;;;9.07;5.28;;;5.70;85.10;;;;;;5030950;28;20025;-66
2023/12/08 08:34:05;;;;;;;8.10;5.57;;;5.70;85.20;;;;;;5035564;28;20036;-66
2023/12/08 08:36:31;;;;;;;8.45;5.82;;;5.70;85.10;;;;;;5029522;28;20021;-66
2023/12/08 08:38:57;;;;;;;11.20;5.28;;;5.70;85.10;;;;;;5027191;28;20499;-65
2023/12/08 08:41:23;;;;;;;8.98;6.05;;;5.80;85.20;;;;;;5025845;28;20460;-64
2023/12/08 08:43:50;;;;;;;10.63;5.32;;;5.80;85.20;;;;;;5026646;28;20038;-65
2023/12/08 08:46:16;;;;;;;11.15;6.25;;;5.80;85.20;;;;;;5028620;28;20044;-60
2023/12/08 08:48:42;;;;;;;12.43;6.32;;;5.80;85.20;;;;;;5033484;28;20030;-60
2023/12/08 08:51:08;;;;;;;8.25;5.25;;;5.80;85.20;;;;;;5032196;28;20037;-60
2023/12/08 08:53:35;;;;;;;10.40;5.50;;;5.80;85.20;;;;;;5006056;28;20030;-60
2023/12/08 08:56:01;;;;;;;8.85;5.82;;;5.90;85.30;;;;;;5009385;28;20045;-60
2023/12/08 08:58:27;;;;;;;12.25;5.47;;;5.90;85.30;;;;;;5030710;28;20397;-60
2023/12/08 09:00:53;;;;;;;9.57;4.82;;;5.90;85.30;;;;;;5029191;28;20083;-60
2023/12/08 09:03:18;;;;;;;10.73;6.47;;;5.90;85.30;;;;;;5027012;28;20404;-60
2023/12/08 09:05:44;;;;;;;9.00;5.68;;;5.90;85.30;;;;;;5028218;28;20455;-65
2023/12/08 09:08:10;;;;;;;10.55;6.03;;;6.00;85.40;;;;;;5024843;28;20033;-64
2023/12/08 09:10:36;;;;;;;10.07;5.38;;;6.00;85.40;;;;;;5025550;28;20017;-65
2023/12/08 09:13:02;;;;;;;11.70;5.80;;;6.00;85.50;;;;;;5029723;28;20042;-65
2023/12/08 09:15:28;;;;;;;10.02;5.82;;;6.00;85.50;;;;;;5028063;28;20112;-60
2023/12/08 09:17:54;;;;;;;11.35;5.35;;;6.00;85.60;;;;;;5026168;28;20032;-59
2023/12/08 09:20:20;;;;;;;11.35;4.85;;;6.00;85.70;;;;;;5026946;28;20036;-60
2023/12/08 09:22:46;;;;;;;9.70;5.70;;;6.00;85.60;;;;;;5010761;28;20399;-60
2023/12/08 09:25:12;;;;;;;10.20;6.25;;;6.00;85.70;;;;;;5035812;28;20105;-67
2023/12/08 09:27:39;;;;;;;8.70;4.72;;;6.00;85.70;;;;;;5014940;28;20041;-66
2023/12/08 09:30:05;;;;;;;6.30;4.80;;;6.00;85.70;;;;;;5026500;28;20392;-60
2023/12/08 09:32:31;;;;;;;7.28;5.22;;;6.00;85.80;;;;;;5029720;28;20033;-60
2023/12/08 09:34:57;;;;;;;7.80;4.82;;;6.00;85.80;;;;;;5019749;28;20032;-60
2023/12/08 09:37:22;;;;;;;9.90;5.03;;;6.00;85.80;;;;;;5027288;28;20109;-58
2023/12/08 09:39:48;;;;;;;6.50;3.72;;;6.10;85.80;;;;;;5033538;28;20111;-59
2023/12/08 09:42:21;;;;;;;6.47;4.63;;;6.10;85.80;;;;;;5034565;28;20037;-61
2023/12/08 09:44:49;;;;;;;6.90;4.55;;;6.10;85.80;;;;;;5027598;28;20083;-61
2023/12/08 09:47:19;;;;;;;6.57;4.93;;;6.10;85.80;;;;;;5028454;28;20106;-61
2023/12/08 09:49:46;;;;;;;9.98;4.72;;;6.20;85.80;;;;;;5033247;28;20037;-61
2023/12/08 09:52:14;;;;;;;7.80;5.15;;;6.20;85.80;;;;;;5039239;28;20209;-61
2023/12/08 09:54:41;;;;;;;9.50;5.30;;;6.20;85.90;;;;;;5032470;28;20051;-61
2023/12/08 09:57:09;;;;;;;9.43;5.63;;;6.20;85.90;;;;;;5025780;28;20022;-61
2023/12/08 09:59:38;;;;;;;9.70;5.43;;;6.20;85.90;;;;;;5032531;28;20025;-59
2023/12/08 10:02:07;;;;;;;9.27;5.75;;;6.20;86.00;;;;;;5030283;28;20026;-59
2023/12/08 10:04:35;;;;;;;8.73;5.50;;;6.30;86.00;;;;;;5033304;28;20128;-61
2023/12/08 10:07:05;;;;;;;8.45;5.10;;;6.30;85.90;;;;;;5029933;28;20072;-60
2023/12/08 10:09:32;;;;;;;10.63;6.40;;;6.30;86.50;;;;;;5034673;28;20041;-61
2023/12/08 10:11:58;;;;;;;8.20;5.10;;;6.30;86.00;;;;;;5030999;28;20031;-61
2023/12/08 10:14:25;;;;;;;9.07;5.30;;;6.30;86.00;;;;;;5032200;28;20546;-61
2023/12/08 10:16:52;;;;;;;8.98;4.63;;;6.30;86.10;;;;;;5018133;28;20029;-60
2023/12/08 10:19:20;;;;;;;7.70;5.35;;;6.40;86.10;;;;;;5023252;28;20038;-61
2023/12/08 10:22:01;;;;;;;8.75;5.88;;;6.40;86.00;;;;;;5029300;28;20424;-67
2023/12/08 10:24:30;;;;;;;10.13;5.45;;;6.50;86.00;;;;;;5027598;28;20065;-61
2023/12/08 10:27:00;;;;;;;13.02;5.57;;;6.50;85.90;;;;;;5010728;28;20056;-61
2023/12/08 10:29:35;;;;;;;9.82;5.57;;;6.50;85.90;;;;;;5031254;28;20088;-61
2023/12/08 10:32:01;;;;;;;8.73;5.35;;;6.50;85.90;;;;;;5033578;28;20037;-61
2023/12/08 10:34:27;;;;;;;7.80;4.63;;;6.50;85.90;;;;;;5014476;28;20469;-61
2023/12/08 10:36:54;;;;;;;7.72;4.35;;;6.60;85.90;;;;;;5016705;28;20025;-62
2023/12/08 10:39:20;;;;;;;7.90;5.50;;;6.60;85.90;;;;;;5037392;28;20123;-68
2023/12/08 10:41:49;;;;;;;7.55;5.10;;;6.60;85.90;;;;;;5010744;28;20136;-68
2023/12/08 10:44:21;;;;;;;10.35;6.32;;;6.70;85.80;;;;;;5028663;28;20400;-68
2023/12/08 10:46:48;;;;;;;22.73;7.35;;;6.70;85.80;;;;;;5032107;28;20324;-68
2023/12/08 10:49:19;;;;;;;39.10;8.38;;;6.70;85.80;;;;;;5030313;28;20040;-60
2023/12/08 10:51:49;;;;;;;16.77;7.38;;;6.70;85.90;;;;;;5032347;28;20029;-61
2023/12/08 10:54:19;;;;;;;12.95;8.07;;;6.70;86.00;;;;;;5010724;28;20099;-61
2023/12/08 10:56:46;;;;;;;11.77;6.70;;;6.70;86.10;;;;;;5028890;28;20120;-61
2023/12/08 10:59:18;;;;;;;13.60;8.15;;;6.70;86.20;;;;;;5017058;28;20040;-61
2023/12/08 11:01:44;;;;;;;14.23;6.93;;;6.70;86.20;;;;;;5019726;28;20446;-61
2023/12/08 11:04:17;;;;;;;14.57;8.82;;;6.70;86.20;;;;;;5010226;28;20128;-61
2023/12/08 11:07:15;;;;;;;20.38;9.02;;;6.70;86.40;;;;;;5027062;28;20430;-67
2023/12/08 11:09:41;;;;;;;16.00;8.23;;;6.80;86.60;;;;;;5029456;28;20041;-61
2023/12/08 11:12:08;;;;;;;12.95;7.72;;;6.70;86.60;;;;;;5027872;28;20100;-61
2023/12/08 11:14:46;;;;;;;12.75;7.80;;;6.80;86.60;;;;;;5031476;28;20538;-61
2023/12/08 11:17:30;;;;;;;16.55;8.70;;;6.80;86.50;;;;;;5031260;28;20352;-61
2023/12/08 11:19:58;;;;;;;22.20;9.13;;;6.80;86.50;;;;;;5026554;28;20029;-61
2023/12/08 11:22:25;;;;;;;21.10;12.02;;;6.90;86.60;;;;;;5027762;28;20029;-60
2023/12/08 11:24:50;;;;;;;18.65;10.43;;;6.90;86.60;;;;;;5033508;28;20025;-60
2023/12/08 11:27:32;;;;;;;26.65;10.27;;;6.90;86.90;;;;;;5038218;28;20034;-60
2023/12/08 11:30:13;;;;;;;25.73;10.57;;;6.90;87.00;;;;;;5025431;28;20030;-60
2023/12/08 11:33:05;;;;;;;17.25;11.32;;;6.90;87.10;;;;;;5031437;28;20763;-59
2023/12/08 11:35:31;;;;;;;18.00;10.63;;;6.90;87.40;;;;;;5014175;28;20025;-60
2023/12/08 11:37:56;;;;;;;22.73;10.52;;;6.90;87.60;;;;;;5016288;28;20527;-60
2023/12/08 11:40:22;;;;;;;24.08;10.43;;;6.90;87.60;;;;;;5036545;28;20516;-60
2023/12/08 11:42:50;;;;;;;15.70;8.73;;;7.00;87.60;;;;;;5028425;28;20033;-60
2023/12/08 11:45:17;;;;;;;23.85;11.52;;;7.00;87.40;;;;;;5029837;28;20100;-67
2023/12/08 11:47:43;;;;;;;19.20;10.27;;;7.10;87.40;;;;;;5024831;28;20164;-67
2023/12/08 11:50:11;;;;;;;23.60;11.63;;;7.00;87.50;;;;;;5034846;28;20120;-67
2023/12/08 11:52:37;;;;;;;43.90;14.20;;;7.10;87.60;;;;;;5013467;28;20477;-68
2023/12/08 11:55:16;;;;;;;17.88;10.07;;;7.10;87.80;;;;;;5021312;28;20057;-68
2023/12/08 11:58:02;;;;;;;37.25;13.18;;;7.10;87.90;;;;;;5013550;28;20106;-67
2023/12/08 12:00:30;;;;;;;19.67;10.85;;;7.10;87.90;;;;;;5023776;28;20049;-68
2023/12/08 12:02:57;;;;;;;23.90;12.63;;;7.10;88.10;;;;;;5008579;28;20026;-68
2023/12/08 12:05:23;;;;;;;27.08;12.30;;;7.10;88.10;;;;;;5030168;28;20079;-68
2023/12/08 12:07:53;;;;;;;22.95;12.27;;;7.20;88.10;;;;;;5026329;28;20091;-60
2023/12/08 12:10:27;;;;;;;22.73;12.15;;;7.30;88.10;;;;;;5031948;28;20030;-68
2023/12/08 12:13:03;;;;;;;22.90;10.82;;;7.30;88.10;;;;;;5025364;28;20104;-67
2023/12/08 12:15:30;;;;;;;20.95;11.35;;;7.30;88.00;;;;;;5030186;28;20025;-67
2023/12/08 12:17:57;;;;;;;20.15;10.20;;;7.40;87.90;;;;;;5025310;28;20479;-67
2023/12/08 12:20:23;;;;;;;18.50;9.68;;;7.40;87.90;;;;;;5028638;28;20021;-60
2023/12/08 12:22:49;;;;;;;16.63;8.52;;;7.40;87.80;;;;;;5026761;28;20087;-60
2023/12/08 12:25:14;;;;;;;14.77;8.82;;;7.50;87.80;;;;;;5026051;28;20030;-60
2023/12/08 12:27:47;;;;;;;20.50;9.50;;;7.50;87.70;;;;;;5028349;28;20033;-68
2023/12/08 12:30:13;;;;;;;19.30;9.48;;;7.60;87.60;;;;;;5025301;28;20083;-68
2023/12/08 12:32:39;;;;;;;12.50;7.97;;;7.60;87.50;;;;;;5030576;28;20029;-68
2023/12/08 12:35:06;;;;;;;20.08;10.38;;;7.60;87.40;;;;;;5030066;28;20026;-68
2023/12/08 12:37:32;;;;;;;19.15;8.13;;;7.70;87.50;;;;;;5012177;28;20029;-68
2023/12/08 12:39:58;;;;;;;22.63;10.20;;;7.70;87.50;;;;;;5016320;28;20033;-68
2023/12/08 12:42:24;;;;;;;19.65;9.35;;;7.70;87.50;;;;;;5027249;28;20518;-70
2023/12/08 12:44:49;;;;;;;18.10;8.18;;;7.70;87.40;;;;;;5027382;28;20503;-68
2023/12/08 12:47:27;;;;;;;21.02;9.40;;;7.70;87.40;;;;;;5031919;28;20041;-70
2023/12/08 12:50:05;;;;;;;25.75;9.27;;;7.80;87.60;;;;;;5017772;28;20037;-69
2023/12/08 12:52:34;;;;;;;27.02;12.02;;;7.80;87.60;;;;;;5023956;28;20055;-60